createdAt,value
2019-04-07T00:01:00.483Z,-0.30
2019-04-07T00:05:11.066Z,-0.40
2019-04-07T00:09:08.882Z,-0.43
2019-04-07T00:13:12.359Z,-0.49
2019-04-07T00:17:14.886Z,-0.46
2019-04-07T00:21:18.016Z,-0.48
2019-04-07T00:25:20.943Z,-0.55
2019-04-07T00:29:24.556Z,-0.50
2019-04-07T00:33:27.330Z,-0.60
2019-04-07T00:37:29.809Z,-0.69
2019-04-07T00:41:33.772Z,-0.74
2019-04-07T00:45:36.887Z,-0.74
2019-04-07T00:49:40.135Z,-0.76
2019-04-07T00:53:43.000Z,-0.78
2019-04-07T00:57:45.638Z,-0.87
2019-04-07T01:01:48.299Z,-0.92
2019-04-07T01:05:51.105Z,-0.95
2019-04-07T01:09:54.122Z,-1.01
2019-04-07T01:13:56.992Z,-1.06
2019-04-07T01:17:59.988Z,-1.11
2019-04-07T01:22:03.198Z,-1.23
2019-04-07T01:26:06.479Z,-1.31
2019-04-07T01:30:10.603Z,-1.33
2019-04-07T01:34:13.493Z,-1.28
2019-04-07T01:38:16.745Z,-1.29
2019-04-07T01:42:34.431Z,-1.34
2019-04-07T01:46:54.568Z,-1.30
2019-04-07T01:51:18.962Z,-1.36
2019-04-07T01:55:43.959Z,-1.47
2019-04-07T02:00:08.600Z,-1.54
2019-04-07T02:04:33.557Z,-1.62
2019-04-07T02:09:10.307Z,-1.69
2019-04-07T02:13:28.715Z,-1.67
2019-04-07T02:17:40.679Z,-1.75
2019-04-07T02:22:01.065Z,-1.72
2019-04-07T02:26:11.462Z,-1.68
2019-04-07T02:30:52.251Z,-1.64
2019-04-07T02:35:09.356Z,-1.63
2019-04-07T02:39:29.451Z,-1.56
2019-04-07T02:44:00.504Z,-1.60
2019-04-07T02:48:26.548Z,-1.64
2019-04-07T02:52:47.370Z,-1.56
2019-04-07T02:57:22.123Z,-1.57
2019-04-07T03:01:31.554Z,-1.59
2019-04-07T03:05:51.153Z,-1.62
2019-04-07T03:10:21.647Z,-1.60
2019-04-07T03:14:42.996Z,-1.70
2019-04-07T03:18:57.948Z,-1.84
2019-04-07T03:23:09.483Z,-1.98
2019-04-07T03:27:33.954Z,-2.10
2019-04-07T03:31:51.346Z,-2.11
2019-04-07T03:36:17.981Z,-2.10
2019-04-07T03:40:36.834Z,-2.07
2019-04-07T03:45:01.374Z,-1.99
2019-04-07T03:49:23.459Z,-1.99
2019-04-07T03:53:45.709Z,-1.94
2019-04-07T03:58:03.812Z,-1.95
2019-04-07T04:02:21.683Z,-1.89
2019-04-07T04:06:46.045Z,-1.82
2019-04-07T04:11:11.470Z,-1.81
2019-04-07T04:15:48.742Z,-1.76
2019-04-07T04:19:51.912Z,-1.65
2019-04-07T04:23:55.039Z,-1.45
2019-04-07T04:27:57.765Z,-1.33
2019-04-07T04:32:01.386Z,-1.30
2019-04-07T04:36:04.419Z,-1.23
2019-04-07T04:40:07.955Z,-1.16
2019-04-07T04:44:10.760Z,-1.00
2019-04-07T04:48:13.797Z,-0.82
2019-04-07T04:52:16.995Z,-0.66
2019-04-07T04:56:22.755Z,-0.45
2019-04-07T05:00:25.373Z,-0.16
2019-04-07T05:04:28.136Z,0.27
2019-04-07T05:08:31.170Z,0.70
2019-04-07T05:12:33.674Z,1.04
2019-04-07T05:16:37.243Z,1.14
2019-04-07T05:20:39.859Z,1.20
2019-04-07T05:24:42.702Z,1.55
2019-04-07T05:28:45.908Z,1.92
2019-04-07T05:32:49.050Z,2.13
2019-04-07T05:36:52.191Z,1.99
2019-04-07T05:40:55.333Z,1.95
2019-04-07T05:44:58.542Z,2.03
2019-04-07T05:49:02.120Z,2.09
2019-04-07T05:53:09.494Z,2.45
2019-04-07T05:57:09.676Z,2.85
2019-04-07T06:01:12.888Z,3.06
2019-04-07T06:05:17.291Z,3.14
2019-04-07T06:09:20.925Z,3.46
2019-04-07T06:13:23.694Z,3.64
2019-04-07T06:17:27.411Z,3.99
2019-04-07T06:21:31.221Z,4.33
2019-04-07T06:25:37.923Z,4.43
2019-04-07T06:29:37.798Z,4.59
2019-04-07T06:33:40.530Z,4.71
2019-04-07T06:37:43.161Z,4.96
2019-04-07T06:41:45.483Z,5.25
2019-04-07T06:46:16.535Z,5.58
2019-04-07T06:50:47.257Z,5.93
2019-04-07T06:54:56.290Z,6.17
2019-04-07T06:59:17.650Z,6.51
2019-04-07T07:03:33.522Z,6.74
2019-04-07T07:07:55.177Z,6.84
2019-04-07T07:12:38.066Z,6.99
2019-04-07T07:16:57.154Z,7.17
2019-04-07T07:21:27.449Z,7.38
2019-04-07T07:25:32.079Z,7.52
2019-04-07T07:29:33.880Z,7.62
2019-04-07T07:33:38.395Z,7.73
2019-04-07T07:37:40.173Z,7.98
2019-04-07T07:41:42.404Z,8.10
2019-04-07T07:45:47.370Z,8.15
2019-04-07T07:49:48.599Z,8.34
2019-04-07T07:53:51.568Z,8.50
2019-04-07T07:57:58.927Z,8.60
2019-04-07T08:01:59.561Z,8.72
2019-04-07T08:06:04.648Z,8.90
2019-04-07T08:10:07.356Z,8.97
2019-04-07T08:14:15.102Z,9.11
2019-04-07T08:18:14.781Z,9.22
2019-04-07T08:22:27.506Z,9.38
2019-04-07T08:26:24.305Z,9.67
2019-04-07T08:30:26.059Z,9.97
2019-04-07T08:34:31.510Z,9.96
2019-04-07T08:38:34.326Z,10.11
2019-04-07T08:42:37.035Z,10.33
2019-04-07T08:46:41.674Z,10.48
2019-04-07T08:50:43.526Z,10.53
2019-04-07T08:54:48.286Z,10.58
2019-04-07T08:58:49.940Z,10.51
2019-04-07T09:03:02.434Z,10.58
2019-04-07T09:07:00.694Z,10.72
2019-04-07T09:11:13.236Z,11.02
2019-04-07T09:15:22.427Z,10.93
2019-04-07T09:19:40.364Z,11.10
2019-04-07T09:23:55.191Z,11.17
2019-04-07T09:28:15.519Z,11.38
2019-04-07T09:32:30.060Z,11.37
2019-04-07T09:37:00.443Z,11.59
2019-04-07T09:41:27.373Z,11.59
2019-04-07T09:45:52.898Z,11.66
2019-04-07T09:50:05.659Z,11.66
2019-04-07T09:54:29.394Z,11.65
2019-04-07T09:58:51.839Z,11.81
2019-04-07T10:03:15.181Z,11.95
2019-04-07T10:07:42.200Z,11.67
2019-04-07T10:11:59.400Z,11.81
2019-04-07T10:16:10.981Z,11.84
2019-04-07T10:20:35.774Z,11.72
2019-04-07T10:24:57.113Z,11.72
2019-04-07T10:29:12.144Z,11.90
2019-04-07T10:33:51.554Z,11.88
2019-04-07T10:37:59.667Z,11.94
2019-04-07T10:42:20.161Z,12.20
2019-04-07T10:46:31.058Z,12.18
2019-04-07T10:50:49.241Z,11.98
2019-04-07T10:54:58.356Z,12.15
2019-04-07T10:59:18.205Z,12.21
2019-04-07T11:03:40.541Z,12.13
2019-04-07T11:08:14.961Z,12.12
2019-04-07T11:12:48.131Z,12.19
2019-04-07T11:17:10.055Z,12.11
2019-04-07T11:21:35.043Z,12.01
2019-04-07T11:26:02.664Z,12.20
2019-04-07T11:30:14.651Z,12.07
2019-04-07T11:34:30.462Z,11.99
2019-04-07T11:38:58.519Z,11.90
2019-04-07T11:43:09.583Z,11.96
2019-04-07T11:47:24.041Z,11.99
2019-04-07T11:51:42.747Z,11.98
2019-04-07T11:56:08.463Z,11.98
2019-04-07T12:00:35.795Z,12.06
2019-04-07T12:04:58.980Z,12.13
2019-04-07T12:09:32.341Z,12.19
2019-04-07T12:13:42.875Z,12.30
2019-04-07T12:18:03.741Z,12.38
2019-04-07T12:22:26.081Z,12.30
2019-04-07T12:27:01.055Z,12.34
2019-04-07T12:31:19.115Z,12.44
2019-04-07T12:35:50.943Z,12.41
2019-04-07T12:40:18.281Z,12.64
2019-04-07T12:44:25.455Z,12.63
2019-04-07T12:48:45.305Z,12.70
2019-04-07T12:53:19.558Z,12.48
2019-04-07T12:57:43.680Z,12.42
2019-04-07T13:02:11.436Z,12.61
2019-04-07T13:06:28.774Z,12.68
2019-04-07T13:10:56.463Z,12.73
2019-04-07T13:15:11.871Z,12.79
2019-04-07T13:19:41.838Z,12.66
2019-04-07T13:24:13.089Z,12.52
2019-04-07T13:28:24.741Z,12.63
2019-04-07T13:32:44.593Z,12.83
2019-04-07T13:37:09.595Z,13.05
2019-04-07T13:41:38.577Z,13.58
2019-04-07T13:45:54.526Z,13.51
2019-04-07T13:50:32.602Z,13.48
2019-04-07T13:54:51.182Z,13.39
2019-04-07T13:59:11.411Z,13.16
2019-04-07T14:03:32.741Z,12.93
2019-04-07T14:07:42.924Z,12.74
2019-04-07T14:12:12.855Z,12.64
2019-04-07T14:16:38.221Z,12.63
2019-04-07T14:20:58.431Z,12.37
2019-04-07T14:25:26.756Z,12.17
2019-04-07T14:30:07.822Z,12.00
2019-04-07T14:34:44.190Z,11.93
2019-04-07T14:38:58.612Z,11.90
2019-04-07T14:43:20.990Z,11.79
2019-04-07T14:47:48.894Z,11.58
2019-04-07T14:52:16.670Z,11.33
2019-04-07T14:56:47.725Z,11.21
2019-04-07T15:01:15.215Z,11.13
2019-04-07T15:05:25.911Z,11.26
2019-04-07T15:09:48.019Z,11.28
2019-04-07T15:13:50.876Z,11.19
2019-04-07T15:17:54.375Z,11.03
2019-04-07T15:21:57.050Z,10.82
2019-04-07T15:26:00.175Z,10.72
2019-04-07T15:30:04.286Z,10.54
2019-04-07T15:34:09.661Z,10.41
2019-04-07T15:38:12.649Z,10.35
2019-04-07T15:42:31.501Z,10.27
2019-04-07T15:46:20.024Z,10.14
2019-04-07T15:50:22.722Z,10.10
2019-04-07T15:54:25.442Z,9.99
2019-04-07T15:58:28.760Z,9.81
2019-04-07T16:02:32.381Z,9.73
2019-04-07T16:06:36.961Z,9.67
2019-04-07T16:10:40.247Z,9.63
2019-04-07T16:14:45.890Z,9.43
2019-04-07T16:18:46.912Z,9.38
2019-04-07T16:22:51.423Z,9.27
2019-04-07T16:26:54.654Z,9.17
2019-04-07T16:30:58.251Z,9.05
2019-04-07T16:35:01.717Z,8.87
2019-04-07T16:39:09.207Z,8.72
2019-04-07T16:43:16.027Z,8.68
2019-04-07T16:47:23.247Z,8.58
2019-04-07T16:51:26.407Z,8.47
2019-04-07T16:55:49.016Z,8.35
2019-04-07T16:59:48.745Z,8.22
2019-04-07T17:03:51.336Z,8.15
2019-04-07T17:07:56.613Z,8.10
2019-04-07T17:11:58.561Z,7.98
2019-04-07T17:16:01.270Z,7.94
2019-04-07T17:20:04.700Z,7.85
2019-04-07T17:24:08.499Z,7.80
2019-04-07T17:28:12.907Z,7.71
2019-04-07T17:32:15.311Z,7.69
2019-04-07T17:36:21.020Z,7.62
2019-04-07T17:40:27.406Z,7.57
2019-04-07T17:44:49.221Z,7.44
2019-04-07T17:49:08.844Z,7.38
2019-04-07T17:53:30.349Z,7.30
2019-04-07T17:57:42.846Z,7.18
2019-04-07T18:02:03.286Z,7.08
2019-04-07T18:06:32.079Z,6.96
2019-04-07T18:11:09.796Z,6.99
2019-04-07T18:15:31.566Z,7.01
2019-04-07T18:19:58.617Z,6.96
2019-04-07T18:24:22.717Z,6.98
2019-04-07T18:28:37.830Z,6.89
2019-04-07T18:32:47.021Z,6.88
2019-04-07T18:37:11.703Z,6.79
2019-04-07T18:41:30.796Z,6.77
2019-04-07T18:45:59.603Z,6.64
2019-04-07T18:50:16.590Z,6.66
2019-04-07T18:54:42.365Z,6.57
2019-04-07T18:59:17.472Z,6.53
2019-04-07T19:03:38.545Z,6.49
2019-04-07T19:08:00.654Z,6.52
2019-04-07T19:12:23.070Z,6.56
2019-04-07T19:16:50.265Z,6.56
2019-04-07T19:21:20.377Z,6.47
2019-04-07T19:25:45.398Z,6.45
2019-04-07T19:30:11.580Z,6.36
2019-04-07T19:34:32.511Z,6.33
2019-04-07T19:39:12.582Z,6.36
2019-04-07T19:43:30.813Z,6.26
2019-04-07T19:48:11.489Z,6.20
2019-04-07T19:52:26.545Z,6.14
2019-04-07T19:57:07.072Z,6.19
2019-04-07T20:01:27.358Z,6.57
2019-04-07T20:06:02.772Z,6.50
2019-04-07T20:10:16.011Z,6.58
2019-04-07T20:14:47.378Z,6.69
2019-04-07T20:19:00.894Z,6.75
2019-04-07T20:23:20.884Z,6.74
2019-04-07T20:27:31.912Z,6.68
2019-04-07T20:31:54.457Z,6.65
2019-04-07T20:36:23.763Z,6.68
2019-04-07T20:40:44.477Z,6.61
2019-04-07T20:45:18.756Z,6.46
2019-04-07T20:49:38.165Z,6.41
2019-04-07T20:53:53.671Z,6.62
2019-04-07T20:58:20.376Z,6.62
2019-04-07T21:02:36.324Z,6.64
2019-04-07T21:06:55.144Z,6.61
2019-04-07T21:11:07.477Z,6.63
2019-04-07T21:15:32.003Z,6.53
2019-04-07T21:19:52.300Z,6.51
2019-04-07T21:24:18.878Z,6.55
2019-04-07T21:28:45.922Z,6.46
2019-04-07T21:33:00.361Z,6.30
2019-04-07T21:37:25.029Z,6.12
2019-04-07T21:41:46.344Z,5.95
2019-04-07T21:46:15.326Z,5.77
2019-04-07T21:50:33.589Z,5.60
2019-04-07T21:54:46.105Z,5.56
2019-04-07T21:59:13.978Z,5.46
2019-04-07T22:03:31.786Z,5.41
2019-04-07T22:07:57.895Z,5.33
2019-04-07T22:12:00.884Z,5.26
2019-04-07T22:16:04.266Z,5.06
2019-04-07T22:20:08.468Z,5.00
2019-04-07T22:24:11.162Z,4.92
2019-04-07T22:28:13.895Z,4.80
2019-04-07T22:32:19.196Z,4.72
2019-04-07T22:36:21.101Z,4.57
2019-04-07T22:40:24.065Z,4.47
2019-04-07T22:44:26.701Z,4.42
2019-04-07T22:48:29.543Z,4.36
2019-04-07T22:52:32.178Z,4.21
2019-04-07T22:56:37.503Z,3.92
2019-04-07T23:00:40.640Z,3.69
2019-04-07T23:04:43.256Z,3.49
2019-04-07T23:08:45.811Z,3.33
2019-04-07T23:12:48.459Z,3.18
2019-04-07T23:16:51.848Z,3.09
2019-04-07T23:20:54.459Z,3.04
2019-04-07T23:24:56.996Z,2.80
2019-04-07T23:28:59.723Z,2.76
2019-04-07T23:33:02.272Z,2.67
2019-04-07T23:37:04.831Z,2.56
2019-04-07T23:41:07.656Z,2.49
2019-04-07T23:45:10.886Z,2.34
2019-04-07T23:49:13.445Z,2.25
2019-04-07T23:53:51.271Z,2.11
2019-04-07T23:57:54.297Z,1.98
